createdAt,value
2018-05-07T00:00:27.028Z,17.28
2018-05-07T00:01:27.123Z,17.23
2018-05-07T00:02:27.068Z,17.15
2018-05-07T00:03:27.039Z,17.30
2018-05-07T00:04:27.109Z,17.20
2018-05-07T00:05:27.043Z,17.25
2018-05-07T00:06:27.053Z,17.20
2018-05-07T00:07:27.056Z,17.25
2018-05-07T00:08:27.048Z,17.07
2018-05-07T00:09:27.064Z,17.11
2018-05-07T00:10:27.058Z,17.07
2018-05-07T00:11:27.071Z,17.11
2018-05-07T00:12:27.090Z,17.04
2018-05-07T00:13:27.072Z,17.03
2018-05-07T00:14:27.099Z,17.04
2018-05-07T00:15:27.087Z,16.96
2018-05-07T00:16:27.244Z,16.96
2018-05-07T00:17:27.094Z,16.93
2018-05-07T00:18:27.123Z,16.92
2018-05-07T00:19:27.101Z,16.85
2018-05-07T00:20:27.107Z,16.83
2018-05-07T00:21:27.106Z,16.73
2018-05-07T00:22:27.137Z,16.78
2018-05-07T00:23:27.119Z,16.70
2018-05-07T00:24:27.128Z,16.70
2018-05-07T00:25:27.120Z,16.62
2018-05-07T00:26:27.131Z,16.65
2018-05-07T00:27:27.128Z,16.65
2018-05-07T00:28:27.140Z,16.63
2018-05-07T00:29:27.143Z,16.63
2018-05-07T00:30:27.141Z,16.63
2018-05-07T00:31:27.149Z,16.62
2018-05-07T00:32:27.149Z,16.62
2018-05-07T00:33:27.160Z,16.60
2018-05-07T00:34:27.163Z,16.60
2018-05-07T00:35:27.181Z,16.56
2018-05-07T00:36:27.166Z,16.59
2018-05-07T00:37:27.173Z,16.65
2018-05-07T00:38:27.173Z,16.68
2018-05-07T00:39:27.184Z,16.60
2018-05-07T00:40:27.178Z,16.70
2018-05-07T00:41:27.189Z,16.59
2018-05-07T00:42:27.191Z,16.65
2018-05-07T00:43:27.199Z,16.58
2018-05-07T00:44:27.194Z,16.62
2018-05-07T00:45:27.198Z,16.60
2018-05-07T00:46:27.207Z,16.59
2018-05-07T00:47:27.208Z,16.49
2018-05-07T00:48:27.219Z,16.40
2018-05-07T00:49:27.213Z,16.52
2018-05-07T00:50:27.274Z,16.49
2018-05-07T00:51:27.223Z,16.50
2018-05-07T00:52:27.230Z,16.42
2018-05-07T00:53:27.231Z,16.48
2018-05-07T00:54:27.241Z,16.40
2018-05-07T00:55:27.254Z,16.44
2018-05-07T00:56:27.256Z,16.40
2018-05-07T00:57:27.241Z,16.33
2018-05-07T00:58:27.255Z,16.23
2018-05-07T00:59:27.253Z,16.31
2018-05-07T01:00:27.264Z,16.20
2018-05-07T01:01:27.274Z,16.26
2018-05-07T01:02:27.266Z,16.22
2018-05-07T01:03:27.270Z,16.23
2018-05-07T01:04:27.272Z,16.22
2018-05-07T01:05:27.281Z,16.20
2018-05-07T01:06:27.283Z,16.16
2018-05-07T01:07:27.290Z,16.22
2018-05-07T01:08:27.296Z,16.20
2018-05-07T01:09:27.288Z,16.22
2018-05-07T01:10:27.301Z,16.15
2018-05-07T01:11:27.308Z,16.20
2018-05-07T01:12:27.311Z,16.15
2018-05-07T01:13:27.308Z,16.03
2018-05-07T01:14:27.308Z,16.01
2018-05-07T01:15:27.319Z,16.06
2018-05-07T01:16:27.319Z,16.01
2018-05-07T01:17:27.329Z,16.09
2018-05-07T01:18:27.328Z,16.06
2018-05-07T01:19:27.339Z,16.03
2018-05-07T01:20:27.331Z,16.00
2018-05-07T01:21:27.338Z,15.96
2018-05-07T01:22:27.340Z,15.97
2018-05-07T01:23:27.341Z,16.06
2018-05-07T01:24:27.354Z,15.99
2018-05-07T01:25:27.354Z,15.97
2018-05-07T01:26:27.364Z,15.96
2018-05-07T01:27:27.358Z,15.86
2018-05-07T01:28:27.365Z,15.79
2018-05-07T01:29:27.366Z,15.81
2018-05-07T01:30:27.373Z,15.81
2018-05-07T01:31:27.374Z,15.81
2018-05-07T01:32:27.383Z,15.68
2018-05-07T01:33:27.380Z,15.82
2018-05-07T01:34:27.388Z,15.72
2018-05-07T01:35:27.412Z,15.74
2018-05-07T01:36:27.396Z,15.76
2018-05-07T01:37:27.389Z,15.76
2018-05-07T01:38:27.403Z,15.75
2018-05-07T01:39:27.399Z,15.84
2018-05-07T01:40:27.407Z,15.81
2018-05-07T01:41:27.408Z,15.78
2018-05-07T01:42:27.410Z,15.72
2018-05-07T01:43:27.423Z,15.70
2018-05-07T01:44:27.987Z,15.74
2018-05-07T01:45:27.418Z,15.70
2018-05-07T01:46:27.426Z,15.82
2018-05-07T01:47:27.433Z,15.78
2018-05-07T01:48:27.440Z,15.81
2018-05-07T01:49:27.433Z,15.75
2018-05-07T01:50:27.440Z,15.78
2018-05-07T01:51:27.450Z,15.81
2018-05-07T01:52:27.451Z,15.72
2018-05-07T01:53:27.451Z,15.72
2018-05-07T01:54:27.455Z,15.68
2018-05-07T01:55:27.468Z,15.63
2018-05-07T01:56:27.466Z,15.67
2018-05-07T01:57:27.470Z,15.67
2018-05-07T01:58:27.476Z,15.61
2018-05-07T01:59:27.469Z,15.63
2018-05-07T02:00:27.480Z,15.60
2018-05-07T02:01:27.481Z,15.67
2018-05-07T02:02:27.487Z,15.61
2018-05-07T02:03:27.494Z,15.51
2018-05-07T02:04:27.487Z,15.52
2018-05-07T02:05:27.493Z,15.52
2018-05-07T02:06:27.496Z,15.51
2018-05-07T02:07:27.507Z,15.51
2018-05-07T02:08:27.509Z,15.42
2018-05-07T02:09:27.505Z,15.46
2018-05-07T02:10:27.510Z,15.56
2018-05-07T02:11:27.518Z,15.54
2018-05-07T02:12:27.517Z,15.46
2018-05-07T02:13:27.527Z,15.43
2018-05-07T02:14:27.521Z,15.41
2018-05-07T02:15:27.534Z,15.45
2018-05-07T02:16:27.538Z,15.41
2018-05-07T02:17:27.531Z,15.39
2018-05-07T02:18:27.543Z,15.33
2018-05-07T02:19:27.538Z,15.36
2018-05-07T02:20:27.546Z,15.24
2018-05-07T02:21:27.556Z,15.31
2018-05-07T02:22:27.560Z,15.26
2018-05-07T02:23:27.557Z,15.26
2018-05-07T02:24:27.578Z,15.26
2018-05-07T02:25:27.566Z,15.26
2018-05-07T02:26:27.567Z,15.12
2018-05-07T02:27:27.589Z,15.20
2018-05-07T02:28:27.576Z,15.24
2018-05-07T02:29:27.578Z,15.21
2018-05-07T02:30:27.583Z,15.27
2018-05-07T02:31:27.667Z,15.23
2018-05-07T02:32:27.584Z,15.15
2018-05-07T02:33:27.597Z,15.15
2018-05-07T02:34:27.590Z,15.12
2018-05-07T02:35:27.601Z,15.15
2018-05-07T02:36:27.605Z,15.09
2018-05-07T02:37:27.604Z,15.09
2018-05-07T02:38:27.609Z,15.13
2018-05-07T02:39:27.616Z,15.06
2018-05-07T02:40:27.618Z,15.01
2018-05-07T02:41:27.613Z,14.99
2018-05-07T02:42:27.626Z,14.94
2018-05-07T02:43:27.632Z,14.91
2018-05-07T02:44:27.631Z,14.83
2018-05-07T02:45:27.629Z,14.88
2018-05-07T02:46:27.631Z,14.81
2018-05-07T02:47:27.634Z,14.75
2018-05-07T02:48:27.650Z,14.83
2018-05-07T02:49:27.649Z,14.83
2018-05-07T02:50:27.652Z,14.81
2018-05-07T02:51:27.646Z,14.83
2018-05-07T02:52:27.665Z,14.71
2018-05-07T02:53:27.668Z,14.75
2018-05-07T02:54:27.664Z,14.74
2018-05-07T02:55:27.665Z,14.72
2018-05-07T02:56:27.670Z,14.65
2018-05-07T02:57:27.670Z,14.65
2018-05-07T02:58:27.675Z,14.53
2018-05-07T02:59:27.682Z,14.64
2018-05-07T03:00:27.686Z,14.60
2018-05-07T03:01:27.680Z,14.61
2018-05-07T03:02:27.687Z,14.64
2018-05-07T03:03:27.695Z,14.67
2018-05-07T03:04:27.690Z,14.54
2018-05-07T03:05:27.699Z,14.64
2018-05-07T03:06:27.701Z,14.65
2018-05-07T03:07:27.701Z,14.54
2018-05-07T03:08:27.702Z,14.61
2018-05-07T03:09:27.711Z,14.50
2018-05-07T03:10:27.712Z,14.65
2018-05-07T03:11:27.722Z,14.50
2018-05-07T03:12:27.722Z,14.53
2018-05-07T03:13:27.715Z,14.50
2018-05-07T03:14:27.721Z,14.54
2018-05-07T03:15:27.729Z,14.56
2018-05-07T03:16:27.737Z,14.52
2018-05-07T03:17:27.744Z,14.43
2018-05-07T03:18:27.743Z,14.46
2018-05-07T03:19:27.744Z,14.60
2018-05-07T03:20:27.757Z,14.53
2018-05-07T03:21:27.745Z,14.54
2018-05-07T03:22:27.753Z,14.52
2018-05-07T03:23:27.774Z,14.52
2018-05-07T03:24:27.752Z,14.54
2018-05-07T03:25:27.778Z,14.47
2018-05-07T03:26:27.769Z,14.49
2018-05-07T03:27:27.764Z,14.46
2018-05-07T03:28:27.770Z,14.47
2018-05-07T03:29:27.772Z,14.44
2018-05-07T03:30:27.778Z,14.43
2018-05-07T03:31:27.778Z,14.46
2018-05-07T03:32:27.784Z,14.42
2018-05-07T03:33:27.779Z,14.38
2018-05-07T03:34:27.790Z,14.44
2018-05-07T03:35:27.783Z,14.39
2018-05-07T03:36:27.790Z,14.42
2018-05-07T03:37:27.795Z,14.47
2018-05-07T03:38:27.808Z,14.44
2018-05-07T03:39:27.805Z,14.38
2018-05-07T03:40:27.866Z,14.42
2018-05-07T03:41:27.811Z,14.43
2018-05-07T03:42:27.805Z,14.34
2018-05-07T03:43:27.815Z,14.35
2018-05-07T03:44:27.817Z,14.35
2018-05-07T03:45:27.830Z,14.43
2018-05-07T03:46:27.830Z,14.37
2018-05-07T03:47:27.825Z,14.37
2018-05-07T03:48:27.840Z,14.32
2018-05-07T03:49:27.844Z,14.29
2018-05-07T03:50:27.836Z,14.31
2018-05-07T03:51:27.845Z,14.25
2018-05-07T03:52:27.855Z,14.31
2018-05-07T03:53:27.840Z,14.31
2018-05-07T03:54:27.848Z,14.28
2018-05-07T03:55:27.857Z,14.31
2018-05-07T03:56:27.859Z,14.28
2018-05-07T03:57:27.856Z,14.21
2018-05-07T03:58:27.861Z,14.28
2018-05-07T03:59:27.868Z,14.27
2018-05-07T04:00:27.861Z,14.21
2018-05-07T04:01:27.870Z,14.27
2018-05-07T04:02:27.865Z,14.21
2018-05-07T04:03:27.871Z,14.24
2018-05-07T04:04:27.881Z,14.25
2018-05-07T04:05:27.874Z,14.27
2018-05-07T04:06:27.891Z,14.17
2018-05-07T04:07:27.885Z,14.25
2018-05-07T04:08:27.900Z,14.17
2018-05-07T04:09:27.893Z,14.21
2018-05-07T04:10:27.914Z,14.19
2018-05-07T04:11:27.896Z,14.21
2018-05-07T04:12:27.902Z,14.16
2018-05-07T04:13:27.901Z,14.19
2018-05-07T04:14:27.908Z,14.24
2018-05-07T04:15:27.920Z,14.27
2018-05-07T04:16:27.920Z,14.25
2018-05-07T04:17:27.940Z,14.25
2018-05-07T04:18:27.927Z,14.21
2018-05-07T04:19:27.923Z,14.20
2018-05-07T04:20:27.931Z,14.27
2018-05-07T04:21:27.931Z,14.24
2018-05-07T04:22:27.928Z,14.21
2018-05-07T04:23:27.959Z,14.25
2018-05-07T04:24:27.935Z,14.25
2018-05-07T04:25:27.943Z,14.28
2018-05-07T04:26:27.941Z,14.25
2018-05-07T04:27:27.948Z,14.28
2018-05-07T04:28:27.946Z,14.37
2018-05-07T04:29:27.955Z,14.31
2018-05-07T04:30:27.964Z,14.38
2018-05-07T04:31:28.523Z,14.39
2018-05-07T04:32:27.963Z,14.39
2018-05-07T04:33:27.961Z,14.50
2018-05-07T04:34:27.963Z,14.43
2018-05-07T04:35:27.976Z,14.42
2018-05-07T04:36:27.975Z,14.43
2018-05-07T04:37:27.974Z,14.52
2018-05-07T04:38:27.979Z,14.61
2018-05-07T04:39:27.985Z,14.54
2018-05-07T04:40:27.997Z,14.54
2018-05-07T04:41:27.993Z,14.62
2018-05-07T04:42:27.987Z,14.60
2018-05-07T04:43:28.003Z,14.65
2018-05-07T04:44:27.998Z,14.67
2018-05-07T04:45:28.004Z,14.64
2018-05-07T04:46:28.005Z,14.62
2018-05-07T04:47:28.013Z,14.74
2018-05-07T04:48:28.012Z,14.68
2018-05-07T04:49:28.015Z,14.65
2018-05-07T04:50:28.022Z,14.75
2018-05-07T04:51:28.531Z,14.78
2018-05-07T04:52:28.019Z,14.72
2018-05-07T04:53:28.029Z,14.80
2018-05-07T04:54:28.027Z,14.88
2018-05-07T04:55:28.037Z,14.75
2018-05-07T04:56:28.034Z,14.69
2018-05-07T04:57:28.040Z,14.78
2018-05-07T04:58:28.038Z,14.90
2018-05-07T04:59:28.047Z,14.88
2018-05-07T05:00:28.058Z,14.87
2018-05-07T05:01:28.056Z,14.93
2018-05-07T05:02:28.068Z,14.95
2018-05-07T05:03:28.051Z,14.99
2018-05-07T05:04:28.056Z,15.02
2018-05-07T05:05:28.066Z,15.05
2018-05-07T05:06:28.064Z,15.06
2018-05-07T05:07:28.071Z,15.08
2018-05-07T05:08:28.074Z,15.12
2018-05-07T05:09:28.079Z,15.05
2018-05-07T05:10:28.076Z,15.09
2018-05-07T05:11:28.085Z,15.19
2018-05-07T05:12:28.159Z,15.11
2018-05-07T05:13:28.096Z,15.20
2018-05-07T05:14:28.090Z,15.24
2018-05-07T05:15:28.101Z,15.24
2018-05-07T05:16:28.145Z,15.35
2018-05-07T05:17:28.101Z,15.28
2018-05-07T05:18:28.108Z,15.38
2018-05-07T05:19:28.113Z,15.35
2018-05-07T05:20:28.115Z,15.43
2018-05-07T05:21:28.147Z,15.43
2018-05-07T05:22:28.123Z,15.39
2018-05-07T05:23:28.118Z,15.36
2018-05-07T05:24:28.132Z,15.42
2018-05-07T05:25:28.131Z,15.54
2018-05-07T05:26:28.132Z,15.43
2018-05-07T05:27:28.139Z,15.56
2018-05-07T05:28:28.143Z,15.54
2018-05-07T05:29:28.145Z,15.54
2018-05-07T05:30:28.158Z,15.70
2018-05-07T05:31:28.143Z,16.01
2018-05-07T05:32:28.149Z,16.96
2018-05-07T05:33:28.156Z,18.39
2018-05-07T05:34:28.162Z,19.83
2018-05-07T05:35:28.157Z,20.74
2018-05-07T05:36:28.163Z,21.48
2018-05-07T05:37:28.171Z,21.72
2018-05-07T05:38:28.169Z,22.27
2018-05-07T05:39:28.191Z,22.72
2018-05-07T05:40:28.183Z,22.75
2018-05-07T05:41:28.192Z,23.12
2018-05-07T05:42:28.200Z,23.35
2018-05-07T05:43:28.304Z,23.52
2018-05-07T05:44:28.212Z,23.77
2018-05-07T05:45:28.220Z,24.42
2018-05-07T05:46:28.225Z,24.88
2018-05-07T05:47:28.241Z,25.19
2018-05-07T05:48:28.240Z,25.46
2018-05-07T05:49:28.250Z,25.64
2018-05-07T05:50:28.260Z,26.22
2018-05-07T05:51:28.265Z,26.64
2018-05-07T05:52:28.275Z,26.79
2018-05-07T05:53:28.285Z,26.76
2018-05-07T05:54:28.296Z,26.74
2018-05-07T05:55:28.323Z,27.20
2018-05-07T05:56:28.392Z,27.58
2018-05-07T05:57:28.331Z,27.14
2018-05-07T05:58:28.344Z,26.77
2018-05-07T05:59:28.359Z,26.77
2018-05-07T06:00:28.368Z,26.89
2018-05-07T06:01:28.420Z,25.86
2018-05-07T06:02:28.391Z,25.53
2018-05-07T06:03:28.413Z,25.35
2018-05-07T06:04:28.426Z,25.80
2018-05-07T06:05:28.425Z,26.17
2018-05-07T06:06:28.443Z,26.12
2018-05-07T06:07:28.456Z,26.49
2018-05-07T06:08:28.470Z,26.72
2018-05-07T06:09:28.492Z,26.43
2018-05-07T06:10:28.492Z,26.72
2018-05-07T06:11:28.519Z,26.89
2018-05-07T06:12:28.557Z,27.31
2018-05-07T06:13:28.541Z,27.38
2018-05-07T06:14:28.611Z,27.69
2018-05-07T06:15:28.578Z,27.53
2018-05-07T06:16:28.590Z,27.95
2018-05-07T06:17:29.569Z,28.62
2018-05-07T06:18:28.604Z,29.07
2018-05-07T06:19:28.636Z,29.07
2018-05-07T06:20:28.649Z,29.11
2018-05-07T06:21:28.660Z,28.35
2018-05-07T06:22:28.688Z,28.48
2018-05-07T06:23:28.692Z,28.56
2018-05-07T06:24:28.703Z,29.03
2018-05-07T06:25:28.708Z,29.63
2018-05-07T06:26:28.738Z,29.66
2018-05-07T06:27:28.746Z,29.90
2018-05-07T06:28:28.788Z,30.14
2018-05-07T06:29:28.800Z,29.66
2018-05-07T06:30:28.798Z,29.59
2018-05-07T06:31:28.814Z,29.62
2018-05-07T06:32:28.823Z,29.10
2018-05-07T06:33:28.849Z,28.87
2018-05-07T06:34:28.955Z,29.00
2018-05-07T06:35:28.892Z,28.62
2018-05-07T06:36:28.889Z,29.00
2018-05-07T06:37:28.918Z,29.75
2018-05-07T06:38:28.927Z,30.38
2018-05-07T06:39:28.958Z,30.29
2018-05-07T06:40:28.976Z,30.75
2018-05-07T06:41:28.978Z,31.38
2018-05-07T06:42:28.987Z,31.58
2018-05-07T06:43:29.019Z,31.46
2018-05-07T06:44:29.033Z,30.65
2018-05-07T06:45:29.042Z,30.49
2018-05-07T06:46:29.064Z,30.33
2018-05-07T06:47:29.110Z,30.27
2018-05-07T06:48:29.094Z,30.46
2018-05-07T06:49:29.126Z,30.62
2018-05-07T06:50:29.134Z,31.09
2018-05-07T06:51:29.181Z,31.42
2018-05-07T06:52:29.163Z,31.92
2018-05-07T06:53:29.195Z,32.29
2018-05-07T06:54:29.243Z,32.37
2018-05-07T06:55:29.226Z,31.99
2018-05-07T06:56:29.248Z,31.80
2018-05-07T06:57:29.265Z,32.14
2018-05-07T06:58:29.291Z,31.48
2018-05-07T06:59:29.305Z,31.12
2018-05-07T07:00:29.319Z,31.61
2018-05-07T07:01:29.328Z,31.27
2018-05-07T07:02:29.831Z,30.98
2018-05-07T07:03:29.368Z,31.15
2018-05-07T07:04:29.401Z,30.62
2018-05-07T07:05:29.410Z,30.52
2018-05-07T07:06:29.421Z,30.91
2018-05-07T07:07:29.498Z,30.54
2018-05-07T07:08:29.621Z,30.81
2018-05-07T07:09:29.494Z,31.36
2018-05-07T07:10:29.499Z,31.40
2018-05-07T07:11:29.521Z,31.35
2018-05-07T07:12:29.536Z,31.15
2018-05-07T07:13:29.555Z,30.96
2018-05-07T07:14:29.573Z,30.75
2018-05-07T07:15:29.608Z,30.67
2018-05-07T07:16:29.657Z,30.98
2018-05-07T07:17:29.637Z,30.83
2018-05-07T07:18:29.657Z,31.04
2018-05-07T07:19:29.682Z,30.69
2018-05-07T07:20:29.689Z,30.80
2018-05-07T07:21:29.717Z,31.27
2018-05-07T07:22:29.726Z,31.45
2018-05-07T07:23:29.757Z,31.98
2018-05-07T07:24:29.775Z,32.06
2018-05-07T07:25:29.789Z,31.99
2018-05-07T07:26:29.806Z,32.10
2018-05-07T07:27:29.834Z,32.35
2018-05-07T07:28:29.852Z,32.52
2018-05-07T07:29:29.864Z,32.05
2018-05-07T07:30:29.888Z,31.96
2018-05-07T07:31:29.904Z,31.77
2018-05-07T07:32:29.924Z,31.87
2018-05-07T07:33:29.952Z,32.00
2018-05-07T07:34:29.969Z,31.76
2018-05-07T07:35:30.005Z,30.75
2018-05-07T07:36:30.008Z,31.01
2018-05-07T07:37:30.029Z,31.42
2018-05-07T07:38:30.050Z,31.30
2018-05-07T07:39:30.134Z,31.77
2018-05-07T07:40:30.104Z,31.64
2018-05-07T07:41:30.108Z,31.11
2018-05-07T07:42:30.135Z,30.57
2018-05-07T07:43:30.148Z,30.91
2018-05-07T07:44:30.168Z,30.93
2018-05-07T07:45:30.191Z,31.26
2018-05-07T07:46:30.208Z,31.98
2018-05-07T07:47:30.241Z,32.61
2018-05-07T07:48:30.252Z,33.23
2018-05-07T07:49:30.264Z,32.62
2018-05-07T07:50:30.329Z,32.64
2018-05-07T07:51:30.314Z,32.03
2018-05-07T07:52:30.408Z,32.37
2018-05-07T07:53:30.393Z,32.86
2018-05-07T07:54:30.365Z,32.71
2018-05-07T07:55:30.391Z,32.88
2018-05-07T07:56:30.412Z,32.73
2018-05-07T07:57:30.433Z,32.66
2018-05-07T07:58:30.479Z,32.07
2018-05-07T07:59:30.477Z,32.49
2018-05-07T08:00:30.499Z,32.58
2018-05-07T08:01:30.511Z,32.05
2018-05-07T08:02:30.535Z,32.10
2018-05-07T08:03:30.555Z,31.96
2018-05-07T08:04:30.577Z,32.32
2018-05-07T08:05:30.597Z,32.76
2018-05-07T08:06:30.629Z,33.19
2018-05-07T08:07:30.635Z,32.91
2018-05-07T08:08:30.663Z,32.59
2018-05-07T08:09:30.675Z,32.20
2018-05-07T08:10:30.712Z,31.58
2018-05-07T08:11:30.724Z,31.38
2018-05-07T08:12:30.746Z,31.46
2018-05-07T08:13:30.758Z,31.58
2018-05-07T08:14:30.780Z,31.75
2018-05-07T08:15:30.810Z,32.30
2018-05-07T08:16:30.826Z,32.24
2018-05-07T08:17:31.702Z,32.66
2018-05-07T08:18:30.992Z,33.15
2018-05-07T08:19:30.884Z,32.59
2018-05-07T08:20:30.919Z,32.69
2018-05-07T08:21:30.921Z,32.48
2018-05-07T08:22:30.947Z,32.54
2018-05-07T08:23:30.969Z,32.96
2018-05-07T08:24:30.992Z,32.93
2018-05-07T08:25:31.012Z,33.31
2018-05-07T08:26:31.092Z,33.79
2018-05-07T08:27:31.058Z,33.74
2018-05-07T08:28:31.074Z,33.86
2018-05-07T08:29:31.090Z,34.04
2018-05-07T08:30:31.162Z,34.24
2018-05-07T08:31:31.139Z,33.61
2018-05-07T08:32:31.164Z,32.86
2018-05-07T08:33:31.194Z,32.74
2018-05-07T08:34:31.196Z,33.01
2018-05-07T08:35:31.231Z,33.42
2018-05-07T08:36:31.299Z,34.01
2018-05-07T08:37:31.265Z,33.13
2018-05-07T08:38:31.294Z,33.15
2018-05-07T08:39:31.313Z,33.64
2018-05-07T08:40:31.446Z,33.87
2018-05-07T08:41:31.363Z,33.70
2018-05-07T08:42:31.467Z,33.20
2018-05-07T08:43:31.385Z,32.95
2018-05-07T08:44:31.408Z,32.64
2018-05-07T08:45:31.437Z,31.26
2018-05-07T08:46:31.450Z,31.75
2018-05-07T08:47:31.597Z,32.33
2018-05-07T08:48:31.492Z,32.24
2018-05-07T08:49:31.517Z,32.18
2018-05-07T08:50:31.542Z,31.99
2018-05-07T08:51:31.559Z,31.99
2018-05-07T08:52:31.582Z,32.40
2018-05-07T08:53:32.566Z,32.47
2018-05-07T08:54:31.623Z,32.15
2018-05-07T08:55:31.662Z,31.85
2018-05-07T08:56:31.696Z,32.02
2018-05-07T08:57:31.687Z,31.64
2018-05-07T08:58:31.710Z,31.38
2018-05-07T08:59:31.730Z,31.65
2018-05-07T09:00:31.747Z,32.00
2018-05-07T09:01:31.778Z,31.95
2018-05-07T09:02:31.796Z,31.40
2018-05-07T09:03:31.813Z,31.06
2018-05-07T09:04:32.666Z,30.86
2018-05-07T09:05:31.853Z,30.75
2018-05-07T09:06:31.874Z,30.52
2018-05-07T09:07:31.901Z,30.21
2018-05-07T09:08:31.913Z,30.21
2018-05-07T09:09:31.937Z,30.57
2018-05-07T09:10:31.956Z,30.68
2018-05-07T09:11:31.971Z,31.20
2018-05-07T09:12:32.002Z,31.65
2018-05-07T09:13:32.047Z,32.39
2018-05-07T09:14:32.036Z,33.04
2018-05-07T09:15:32.054Z,32.80
2018-05-07T09:16:32.087Z,32.11
2018-05-07T09:17:32.091Z,31.87
2018-05-07T09:18:32.126Z,32.07
2018-05-07T09:19:32.135Z,32.36
2018-05-07T09:20:32.292Z,32.05
2018-05-07T09:21:32.191Z,32.32
2018-05-07T09:22:32.201Z,32.17
2018-05-07T09:23:32.220Z,32.44
2018-05-07T09:24:32.249Z,32.64
2018-05-07T09:25:32.315Z,32.84
2018-05-07T09:26:32.287Z,32.71
2018-05-07T09:27:32.347Z,31.72
2018-05-07T09:28:32.343Z,31.60
2018-05-07T09:29:32.356Z,31.55
2018-05-07T09:30:32.359Z,31.54
2018-05-07T09:31:32.453Z,31.58
2018-05-07T09:32:32.400Z,31.30
2018-05-07T09:33:32.437Z,31.27
2018-05-07T09:34:32.451Z,30.64
2018-05-07T09:35:32.489Z,30.30
2018-05-07T09:36:32.495Z,30.49
2018-05-07T09:37:32.510Z,30.64
2018-05-07T09:38:32.544Z,30.67
2018-05-07T09:39:32.546Z,30.75
2018-05-07T09:40:32.566Z,30.89
2018-05-07T09:41:32.594Z,30.98
2018-05-07T09:42:32.631Z,31.39
2018-05-07T09:43:32.632Z,31.45
2018-05-07T09:44:32.655Z,30.89
2018-05-07T09:45:32.676Z,30.93
2018-05-07T09:46:32.694Z,31.30
2018-05-07T09:47:32.712Z,31.99
2018-05-07T09:48:32.745Z,32.18
2018-05-07T09:49:32.761Z,32.35
2018-05-07T09:50:32.790Z,32.51
2018-05-07T09:51:32.796Z,32.62
2018-05-07T09:52:32.819Z,32.43
2018-05-07T09:53:32.834Z,31.76
2018-05-07T09:54:32.861Z,31.73
2018-05-07T09:55:32.898Z,31.72
2018-05-07T09:56:32.924Z,31.87
2018-05-07T09:57:32.932Z,31.92
2018-05-07T09:58:32.951Z,32.07
2018-05-07T09:59:32.969Z,32.49
2018-05-07T10:00:32.987Z,31.91
2018-05-07T10:01:33.005Z,31.64
2018-05-07T10:02:33.099Z,30.93
2018-05-07T10:03:33.048Z,31.23
2018-05-07T10:04:33.072Z,31.35
2018-05-07T10:05:33.079Z,31.27
2018-05-07T10:06:33.106Z,30.96
2018-05-07T10:07:33.122Z,30.74
2018-05-07T10:08:33.142Z,30.49
2018-05-07T10:09:33.165Z,30.50
2018-05-07T10:10:33.189Z,30.57
2018-05-07T10:11:33.206Z,30.71
2018-05-07T10:12:33.252Z,30.71
2018-05-07T10:13:33.252Z,30.30
2018-05-07T10:14:33.277Z,30.00
2018-05-07T10:15:33.285Z,30.03
2018-05-07T10:16:33.330Z,30.16
2018-05-07T10:17:33.339Z,30.26
2018-05-07T10:18:33.360Z,30.54
2018-05-07T10:19:33.404Z,30.74
2018-05-07T10:20:33.429Z,30.98
2018-05-07T10:21:33.427Z,31.38
2018-05-07T10:22:33.445Z,31.40
2018-05-07T10:23:33.513Z,31.15
2018-05-07T10:24:33.481Z,30.94
2018-05-07T10:25:33.494Z,30.76
2018-05-07T10:26:33.514Z,30.72
2018-05-07T10:27:33.533Z,30.86
2018-05-07T10:28:33.556Z,30.67
2018-05-07T10:29:33.581Z,30.61
2018-05-07T10:30:33.595Z,30.81
2018-05-07T10:31:33.610Z,30.78
2018-05-07T10:32:33.634Z,30.74
2018-05-07T10:33:33.648Z,29.68
2018-05-07T10:34:33.677Z,29.71
2018-05-07T10:35:33.700Z,29.87
2018-05-07T10:36:33.724Z,30.00
2018-05-07T10:37:33.730Z,30.11
2018-05-07T10:38:33.754Z,29.75
2018-05-07T10:39:33.769Z,29.74
2018-05-07T10:40:33.791Z,30.05
2018-05-07T10:41:33.811Z,29.78
2018-05-07T10:42:33.827Z,29.45
2018-05-07T10:43:33.852Z,29.44
2018-05-07T10:44:33.877Z,29.33
2018-05-07T10:45:34.017Z,29.49
2018-05-07T10:46:33.909Z,29.75
2018-05-07T10:47:33.923Z,30.16
2018-05-07T10:48:33.937Z,30.49
2018-05-07T10:49:33.960Z,30.93
2018-05-07T10:50:33.978Z,31.18
2018-05-07T10:51:34.000Z,30.90
2018-05-07T10:52:34.030Z,30.30
2018-05-07T10:53:34.041Z,29.82
2018-05-07T10:54:34.049Z,29.59
2018-05-07T10:55:34.071Z,29.55
2018-05-07T10:56:34.092Z,29.22
2018-05-07T10:57:34.105Z,29.31
2018-05-07T10:58:34.126Z,29.49
2018-05-07T10:59:34.143Z,29.45
2018-05-07T11:00:34.160Z,29.56
2018-05-07T11:01:34.235Z,29.33
2018-05-07T11:02:34.197Z,29.44
2018-05-07T11:03:34.227Z,29.40
2018-05-07T11:04:34.239Z,29.40
2018-05-07T11:05:34.256Z,29.15
2018-05-07T11:06:34.273Z,29.22
2018-05-07T11:07:34.293Z,29.10
2018-05-07T11:08:34.317Z,29.13
2018-05-07T11:09:34.328Z,28.95
2018-05-07T11:10:34.358Z,28.95
2018-05-07T11:11:34.365Z,28.80
2018-05-07T11:12:34.383Z,28.75
2018-05-07T11:13:34.412Z,28.90
2018-05-07T11:14:34.414Z,29.18
2018-05-07T11:15:34.441Z,29.26
2018-05-07T11:16:34.452Z,29.18
2018-05-07T11:17:34.477Z,29.29
2018-05-07T11:18:34.492Z,29.18
2018-05-07T11:19:34.503Z,29.19
2018-05-07T11:20:34.529Z,29.01
2018-05-07T11:21:34.542Z,29.01
2018-05-07T11:22:34.557Z,29.01
2018-05-07T11:23:34.642Z,29.15
2018-05-07T11:24:34.595Z,29.45
2018-05-07T11:25:34.615Z,29.60
2018-05-07T11:26:34.623Z,29.66
2018-05-07T11:27:34.645Z,29.59
2018-05-07T11:28:34.682Z,29.25
2018-05-07T11:29:34.701Z,28.90
2018-05-07T11:30:34.713Z,28.84
2018-05-07T11:31:34.729Z,28.60
2018-05-07T11:32:34.725Z,28.31
2018-05-07T11:33:34.750Z,28.01
2018-05-07T11:34:34.768Z,27.84
2018-05-07T11:35:34.783Z,27.69
2018-05-07T11:36:34.916Z,27.66
2018-05-07T11:37:34.823Z,27.54
2018-05-07T11:38:34.846Z,27.86
2018-05-07T11:39:34.864Z,28.01
2018-05-07T11:40:34.870Z,28.04
2018-05-07T11:41:34.880Z,27.99
2018-05-07T11:42:34.891Z,27.86
2018-05-07T11:43:34.916Z,27.82
2018-05-07T11:44:34.919Z,27.69
2018-05-07T11:45:34.942Z,27.73
2018-05-07T11:46:35.122Z,27.80
2018-05-07T11:47:35.007Z,27.80
2018-05-07T11:48:34.992Z,27.51
2018-05-07T11:49:34.993Z,27.53
2018-05-07T11:50:35.024Z,27.42
2018-05-07T11:51:35.032Z,27.46
2018-05-07T11:52:35.059Z,27.19
2018-05-07T11:53:35.073Z,26.91
2018-05-07T11:54:35.071Z,26.58
2018-05-07T11:55:35.096Z,26.54
2018-05-07T11:56:35.105Z,26.57
2018-05-07T11:57:35.114Z,26.67
2018-05-07T11:58:35.126Z,26.76
2018-05-07T11:59:35.155Z,26.95
2018-05-07T12:00:35.170Z,26.91
2018-05-07T12:01:35.175Z,26.83
2018-05-07T12:02:35.198Z,26.87
2018-05-07T12:03:35.202Z,26.83
2018-05-07T12:04:35.220Z,26.76
2018-05-07T12:05:35.221Z,26.73
2018-05-07T12:06:35.247Z,26.68
2018-05-07T12:07:35.261Z,26.73
2018-05-07T12:08:35.278Z,26.80
2018-05-07T12:09:35.283Z,26.79
2018-05-07T12:10:35.297Z,26.83
2018-05-07T12:11:35.307Z,26.91
2018-05-07T12:12:35.315Z,26.76
2018-05-07T12:13:35.329Z,26.62
2018-05-07T12:14:35.341Z,26.44
2018-05-07T12:15:35.345Z,26.32
2018-05-07T12:16:35.366Z,26.17
2018-05-07T12:17:35.377Z,26.08
2018-05-07T12:18:35.394Z,26.04
2018-05-07T12:19:35.395Z,26.04
2018-05-07T12:20:35.497Z,26.24
2018-05-07T12:21:35.703Z,26.36
2018-05-07T12:22:35.435Z,26.46
2018-05-07T12:23:35.721Z,26.58
2018-05-07T12:24:35.605Z,26.42
2018-05-07T12:25:35.467Z,26.49
2018-05-07T12:26:35.485Z,26.29
2018-05-07T12:27:35.506Z,26.21
2018-05-07T12:28:35.510Z,26.24
2018-05-07T12:29:35.544Z,26.31
2018-05-07T12:30:35.532Z,26.35
2018-05-07T12:31:35.730Z,26.40
2018-05-07T12:32:35.604Z,26.49
2018-05-07T12:33:35.573Z,26.42
2018-05-07T12:34:35.569Z,26.35
2018-05-07T12:35:35.575Z,26.18
2018-05-07T12:36:35.590Z,26.12
2018-05-07T12:37:35.680Z,26.15
2018-05-07T12:38:35.621Z,26.02
2018-05-07T12:39:35.628Z,25.97
2018-05-07T12:40:35.656Z,26.02
2018-05-07T12:41:35.641Z,26.02
2018-05-07T12:42:35.649Z,26.05
2018-05-07T12:43:35.663Z,26.06
2018-05-07T12:44:35.675Z,25.93
2018-05-07T12:45:35.688Z,25.84
2018-05-07T12:46:35.694Z,25.82
2018-05-07T12:47:35.707Z,25.89
2018-05-07T12:48:35.749Z,26.04
2018-05-07T12:49:35.737Z,26.18
2018-05-07T12:50:35.738Z,26.25
2018-05-07T12:51:35.744Z,26.44
2018-05-07T12:52:35.782Z,26.47